หน้าหลัก
METAR-TAF:

METAR-TAF

ท่าอากาศยาน :

เอ็นจาเมนา, ชาด

ละติจูด: 12-08N, ลองจิจูด: 015-02E, ความสูง: 295 ม.

การสังเกตสภาพอากาศปัจจุบัน

รายงานได้ทำขึ้นเมื่อ 34 นาทีที่แล้ว ณ เวลา 03:00 UTC
ลม 3 นอตจากตะวันออกเฉียงใต้
อุณหภูมิ 23°C
ความชื้น 89%
ความกดอากาศ 1010 hPa
ทัศนวิสัย 10 กม. หรือมากกว่า
ไม่มีเมฆต่ำกว่า 1,500 ม. และไม่มีเมฆคิวมูโลนิมบัส

METAR: FTTJ 080300Z 13003KT CAVOK 23/21 Q1010 NOSIG

เวลา: 04:34 (03:34 UTC)

การพยากรณ์

รายงานได้ทำขึ้นเมื่อ 4 ชั่วโมงและ 34 นาทีที่แล้ว ณ เวลา 23:00 UTC
การพยากรณ์มีผลตั้งแต่วันที่ 08 ณ เวลา 00 UTC จนถึงวันที่ 09 ณ เวลา 06 UTC
ลม 4 นอตจากทิศทางซึ่งแปรผันได้
ทัศนวิสัย: 8000 ม.
กำลังกลายเป็น
ตั้งแต่วันที่ 08 ณ เวลา 10 UTC จนถึงวันที่ 08 ณ เวลา 12 UTC
ลม 10 นอตจากตะวันตกเฉียงใต้
มีเมฆน้อยที่ความสูง 4000 ฟุต
ความน่าจะเป็น 30% :
ชั่วคราว
ตั้งแต่วันที่ 08 ณ เวลา 15 UTC จนถึงวันที่ 08 ณ เวลา 21 UTC
ทัศนวิสัย: 4000 ม.
มีเมฆน้อยที่ความสูง 5000 ฟุต, คิวมูโลนิมบัส.
พายุฝนฟ้าคะนอง

TAF: FTTJ 072300Z 0800/0906 VRB04KT 8000 NSC BECMG 0810/0812 22010KT FEW040 PROB30 TEMPO 0815/0821 4000 TS FEW050CB

สังเกตการณ์สภาพอากาศและพยากรณ์อากาศของสนามบินมากกว่า 4000 แห่ง (รายงาน METAR และ TAF).

สถานีที่ดูได้จะแสดงไว้ด้วยจุดสีเหลืองและสีแดงบนแผนที่.

เลื่อนเมาส์ไปเหนือจุดเพื่อดูชื่อสถานี.

แล้วคลิกเพื่อดูสังเกตการณ์และการพยากรณ์สภาพอากาศ.

ในการเปลี่ยนแผนที่: คลิกที่ปุ่มสีเขียวที่มีกากบาทสีดำเพื่อซูมเข้า; ที่ปุ่มสีเขียวที่มีขีดเพื่อซูมออก; หรือที่ลูกศรสีเขียวเพื่อไปยังแผนที่ที่อยู่ติดกัน.


METAR-TAF: